Time;durP1;ratioP1;P1;durP2;ratioP2;P2;SDS_P1;SDS_P2;PMS_P1;PMS_P2;Temp;Humidity;BMP_temperature;BMP_pressure;BME280_temperature;BME280_humidity;BME280_pressure;Samples;Min_cycle;Max_cycle;Signal;HPM_P1;HPM_P2
2022/06/21 00:00:35;;;;;;;6.28;5.57;;;;;;;;;;5064418;28;20025;-73
2022/06/21 00:03:06;;;;;;;6.65;5.57;;;;;;;;;;5066154;28;20025;-73
2022/06/21 00:05:36;;;;;;;6.40;5.80;;;;;;;;;;5065154;28;20459;-73
2022/06/21 00:08:03;;;;;;;5.82;5.20;;;;;;;;;;5051775;28;20082;-74
2022/06/21 00:10:34;;;;;;;5.75;5.18;;;;;;;;;;5060526;28;20561;-71
2022/06/21 00:13:00;;;;;;;8.10;5.53;;;;;;;;;;5060290;28;20059;-71
2022/06/21 00:15:27;;;;;;;5.75;5.25;;;;;;;;;;5064935;28;20050;-72
2022/06/21 00:17:53;;;;;;;6.75;5.45;;;;;;;;;;5062500;28;20387;-72
2022/06/21 00:20:21;;;;;;;6.57;5.40;;;;;;;;;;5061862;28;20036;-72
2022/06/21 00:22:49;;;;;;;5.93;5.38;;;;;;;;;;5066889;28;20036;-72
2022/06/21 00:25:16;;;;;;;8.18;5.15;;;;;;;;;;5060786;28;20024;-72
2022/06/21 00:27:42;;;;;;;6.60;5.60;;;;;;;;;;5067282;28;20065;-72
2022/06/21 00:30:08;;;;;;;6.53;5.90;;;;;;;;;;5059237;28;20484;-72
2022/06/21 00:32:34;;;;;;;6.03;5.50;;;;;;;;;;5058532;28;20476;-72
2022/06/21 00:35:00;;;;;;;6.93;5.55;;;;;;;;;;5062050;28;20028;-72
2022/06/21 00:37:26;;;;;;;5.95;5.35;;;;;;;;;;5062084;28;20032;-72
2022/06/21 00:39:53;;;;;;;6.57;5.97;;;;;;;;;;5065718;28;20025;-72
2022/06/21 00:42:24;;;;;;;6.40;5.82;;;;;;;;;;5068582;28;20033;-72
2022/06/21 00:45:00;;;;;;;6.25;5.65;;;;;;;;;;5066343;28;20028;-71
2022/06/21 00:47:29;;;;;;;6.68;6.07;;;;;;;;;;5067697;28;20029;-72
2022/06/21 00:49:59;;;;;;;6.13;5.43;;;;;;;;;;5060209;28;20385;-72
2022/06/21 00:52:40;;;;;;;5.72;5.03;;;;;;;;;;5062060;28;20114;-72
2022/06/21 00:55:10;;;;;;;5.72;5.22;;;;;;;;;;5062817;28;20024;-72
2022/06/21 00:57:46;;;;;;;6.30;5.70;;;;;;;;;;5063989;28;20025;-72
2022/06/21 01:00:33;;;;;;;7.40;5.72;;;;;;;;;;5067612;28;20373;-72
2022/06/21 01:03:02;;;;;;;5.72;5.22;;;;;;;;;;5060678;28;20123;-72
2022/06/21 01:05:31;;;;;;;6.40;5.68;;;;;;;;;;5061560;28;20264;-72
2022/06/21 01:07:58;;;;;;;6.13;5.35;;;;;;;;;;5066152;28;20040;-71
2022/06/21 01:10:26;;;;;;;7.65;5.95;;;;;;;;;;5060787;28;20117;-72
2022/06/21 01:12:55;;;;;;;7.90;5.22;;;;;;;;;;5057154;28;20607;-71
2022/06/21 01:15:22;;;;;;;6.20;5.50;;;;;;;;;;5052068;28;20033;-71
2022/06/21 01:17:50;;;;;;;5.88;5.40;;;;;;;;;;5054231;28;20075;-71
2022/06/21 01:20:20;;;;;;;7.53;5.70;;;;;;;;;;5057186;28;20029;-71
2022/06/21 01:22:49;;;;;;;5.80;5.30;;;;;;;;;;5057890;28;20527;-71
2022/06/21 01:25:34;;;;;;;6.57;6.03;;;;;;;;;;5060757;28;20396;-72
2022/06/21 01:28:01;;;;;;;6.13;5.53;;;;;;;;;;5055536;28;20117;-72
2022/06/21 01:30:28;;;;;;;5.93;5.43;;;;;;;;;;5055245;28;20481;-71
2022/06/21 01:32:56;;;;;;;6.10;5.43;;;;;;;;;;5057056;28;20036;-72
2022/06/21 01:35:33;;;;;;;6.00;5.40;;;;;;;;;;5053366;28;20397;-72
2022/06/21 01:38:00;;;;;;;6.15;5.53;;;;;;;;;;5054047;28;20044;-71
2022/06/21 01:40:29;;;;;;;6.43;5.60;;;;;;;;;;5056131;28;20306;-72
2022/06/21 01:42:58;;;;;;;6.65;5.97;;;;;;;;;;5057251;28;20122;-71
2022/06/21 01:45:27;;;;;;;6.35;5.30;;;;;;;;;;5059491;28;20395;-72
2022/06/21 01:47:55;;;;;;;6.97;6.10;;;;;;;;;;5053073;28;20418;-71
2022/06/21 01:50:23;;;;;;;6.50;5.90;;;;;;;;;;5054156;28;20404;-71
2022/06/21 01:52:51;;;;;;;9.30;5.90;;;;;;;;;;5056430;28;20120;-72
2022/06/21 01:55:23;;;;;;;6.47;5.97;;;;;;;;;;5056579;28;20496;-71
2022/06/21 01:57:49;;;;;;;6.78;6.18;;;;;;;;;;5053660;28;20040;-71
2022/06/21 02:00:16;;;;;;;7.72;5.90;;;;;;;;;;5054372;28;20580;-72
2022/06/21 02:02:44;;;;;;;6.22;5.63;;;;;;;;;;5049527;28;20020;-72
2022/06/21 02:05:16;;;;;;;6.18;5.60;;;;;;;;;;5057897;28;20028;-71
2022/06/21 02:07:45;;;;;;;7.38;6.43;;;;;;;;;;5058462;28;20507;-72
2022/06/21 02:10:12;;;;;;;7.18;5.72;;;;;;;;;;5049136;28;20041;-73
2022/06/21 02:12:41;;;;;;;9.10;5.82;;;;;;;;;;5055846;28;20074;-72
2022/06/21 02:15:08;;;;;;;7.00;6.15;;;;;;;;;;5047218;28;20024;-73
2022/06/21 02:17:39;;;;;;;7.07;5.75;;;;;;;;;;5055715;28;20028;-73
2022/06/21 02:20:08;;;;;;;6.43;5.83;;;;;;;;;;5054835;28;20092;-72
2022/06/21 02:22:35;;;;;;;7.85;6.22;;;;;;;;;;5055452;28;20036;-73
2022/06/21 02:25:01;;;;;;;7.35;6.43;;;;;;;;;;5057227;28;20082;-73
2022/06/21 02:27:29;;;;;;;7.68;6.20;;;;;;;;;;5053445;28;20024;-73
2022/06/21 02:29:57;;;;;;;6.88;6.18;;;;;;;;;;5054158;28;20044;-72
2022/06/21 02:32:29;;;;;;;6.45;5.78;;;;;;;;;;5056912;28;20020;-72
2022/06/21 02:35:12;;;;;;;7.60;6.15;;;;;;;;;;5057070;28;20045;-73
2022/06/21 02:37:38;;;;;;;7.85;6.93;;;;;;;;;;5057329;28;20488;-72
2022/06/21 02:40:06;;;;;;;8.05;7.15;;;;;;;;;;5047722;28;20032;-71
2022/06/21 02:42:34;;;;;;;8.95;6.10;;;;;;;;;;5053872;28;20592;-72
2022/06/21 02:45:04;;;;;;;7.88;6.53;;;;;;;;;;5050449;28;20393;-72
2022/06/21 02:47:36;;;;;;;7.03;6.13;;;;;;;;;;5035511;28;20025;-73
2022/06/21 02:50:05;;;;;;;7.03;6.40;;;;;;;;;;5054880;28;20028;-73
2022/06/21 02:52:37;;;;;;;6.88;6.18;;;;;;;;;;5054213;28;20029;-73
2022/06/21 02:55:17;;;;;;;7.13;6.47;;;;;;;;;;5052233;28;20286;-72
2022/06/21 02:57:49;;;;;;;8.35;6.10;;;;;;;;;;5057622;28;20024;-73
2022/06/21 03:00:18;;;;;;;8.00;6.43;;;;;;;;;;5053347;28;20083;-73
2022/06/21 03:02:44;;;;;;;6.55;5.95;;;;;;;;;;5056781;28;20531;-72
2022/06/21 03:05:16;;;;;;;6.40;5.90;;;;;;;;;;5056988;28;20025;-73
2022/06/21 03:07:44;;;;;;;7.40;6.28;;;;;;;;;;5052702;28;20108;-72
2022/06/21 03:10:18;;;;;;;6.13;5.60;;;;;;;;;;5058878;28;20464;-72
2022/06/21 03:12:45;;;;;;;12.88;6.53;;;;;;;;;;5051361;28;20041;-73
2022/06/21 03:15:12;;;;;;;6.50;5.90;;;;;;;;;;5056576;28;20033;-72
2022/06/21 03:18:01;;;;;;;6.95;6.22;;;;;;;;;;5053878;28;20033;-73
2022/06/21 03:20:27;;;;;;;6.78;6.10;;;;;;;;;;5044683;28;20049;-73
2022/06/21 03:22:54;;;;;;;6.90;6.20;;;;;;;;;;5051298;28;20037;-72
2022/06/21 03:25:22;;;;;;;8.98;5.95;;;;;;;;;;5054443;28;20087;-72
2022/06/21 03:27:56;;;;;;;6.13;5.63;;;;;;;;;;5045010;28;20036;-72
2022/06/21 03:30:24;;;;;;;6.53;5.90;;;;;;;;;;5035372;28;20064;-73
2022/06/21 03:32:52;;;;;;;9.40;6.00;;;;;;;;;;5050249;28;20035;-72
2022/06/21 03:35:18;;;;;;;6.57;5.97;;;;;;;;;;5046940;28;20029;-72
2022/06/21 03:37:45;;;;;;;7.05;6.35;;;;;;;;;;5051179;28;20036;-71
2022/06/21 03:43:00;;;;;;;6.45;5.57;;;;;;;;;;5047042;28;20051;-73
2022/06/21 03:45:37;;;;;;;6.35;5.63;;;;;;;;;;5052623;28;20056;-73
2022/06/21 03:48:26;;;;;;;6.50;5.90;;;;;;;;;;5044838;28;20017;-73
2022/06/21 03:50:55;;;;;;;7.40;6.70;;;;;;;;;;5028431;28;20480;-73
2022/06/21 03:53:21;;;;;;;8.57;6.90;;;;;;;;;;5050889;28;20093;-73
2022/06/21 03:55:56;;;;;;;8.02;7.32;;;;;;;;;;5053510;28;20036;-72
2022/06/21 03:58:35;;;;;;;8.40;7.43;;;;;;;;;;5046417;28;20812;-74
2022/06/21 04:01:13;;;;;;;9.18;8.10;;;;;;;;;;5052743;28;20036;-73
2022/06/21 04:03:45;;;;;;;9.02;8.10;;;;;;;;;;5051140;28;20071;-72
2022/06/21 04:06:14;;;;;;;9.60;8.70;;;;;;;;;;5057181;28;20033;-74
2022/06/21 04:08:47;;;;;;;12.98;9.98;;;;;;;;;;5053538;28;20032;-72
2022/06/21 04:11:22;;;;;;;11.60;10.50;;;;;;;;;;5051845;28;20041;-74
2022/06/21 04:14:03;;;;;;;11.77;10.68;;;;;;;;;;5042025;28;20040;-73
2022/06/21 04:16:39;;;;;;;11.77;10.18;;;;;;;;;;5048780;28;20029;-73
2022/06/21 04:19:14;;;;;;;9.77;8.90;;;;;;;;;;5050302;28;20037;-73
2022/06/21 04:21:49;;;;;;;9.38;8.43;;;;;;;;;;5051135;28;20037;-73
2022/06/21 04:24:20;;;;;;;9.98;8.35;;;;;;;;;;5045650;28;20032;-72
2022/06/21 04:26:49;;;;;;;8.43;7.63;;;;;;;;;;5049561;28;20036;-72
2022/06/21 04:29:19;;;;;;;8.30;7.50;;;;;;;;;;5049921;28;20398;-73
2022/06/21 04:31:50;;;;;;;9.05;7.35;;;;;;;;;;5056746;28;20043;-73
2022/06/21 04:34:20;;;;;;;9.18;7.63;;;;;;;;;;5050341;28;20051;-73
2022/06/21 04:36:52;;;;;;;8.98;7.63;;;;;;;;;;5046916;28;20044;-74
2022/06/21 04:39:32;;;;;;;10.98;7.57;;;;;;;;;;5050209;28;20397;-73
2022/06/21 04:42:00;;;;;;;8.23;7.47;;;;;;;;;;5057048;28;20119;-73
2022/06/21 04:44:31;;;;;;;8.40;7.70;;;;;;;;;;5044477;28;20096;-73
2022/06/21 04:46:58;;;;;;;7.93;7.22;;;;;;;;;;5052158;28;20025;-72
2022/06/21 04:49:38;;;;;;;9.68;8.10;;;;;;;;;;5035473;28;20380;-73
2022/06/21 04:52:09;;;;;;;10.18;8.27;;;;;;;;;;5044908;28;20028;-73
2022/06/21 04:54:37;;;;;;;9.35;7.55;;;;;;;;;;5043691;28;20040;-72
2022/06/21 04:57:03;;;;;;;10.52;7.40;;;;;;;;;;5043773;28;20044;-72
2022/06/21 04:59:33;;;;;;;7.97;7.05;;;;;;;;;;5046641;28;20025;-73
2022/06/21 05:01:59;;;;;;;7.57;6.88;;;;;;;;;;5050741;28;20040;-73
2022/06/21 05:04:32;;;;;;;7.55;6.95;;;;;;;;;;5032145;28;20484;-73
2022/06/21 05:06:59;;;;;;;7.93;5.97;;;;;;;;;;5043100;28;20032;-74
2022/06/21 05:09:27;;;;;;;7.93;7.10;;;;;;;;;;5049333;28;20021;-73
2022/06/21 05:11:57;;;;;;;8.13;6.32;;;;;;;;;;5050721;28;20033;-73
2022/06/21 05:14:26;;;;;;;6.82;6.20;;;;;;;;;;5050251;28;20036;-74
2022/06/21 05:16:52;;;;;;;7.70;6.35;;;;;;;;;;5027705;28;20090;-74
2022/06/21 05:19:20;;;;;;;7.75;6.95;;;;;;;;;;5051758;28;20033;-73
2022/06/21 05:21:49;;;;;;;8.02;7.20;;;;;;;;;;5046553;28;20142;-74
2022/06/21 05:24:16;;;;;;;9.32;7.72;;;;;;;;;;5046640;28;20047;-74
2022/06/21 05:27:00;;;;;;;7.68;6.88;;;;;;;;;;5049120;28;20412;-73
2022/06/21 05:29:30;;;;;;;9.32;6.65;;;;;;;;;;5049066;28;20044;-73
2022/06/21 05:31:58;;;;;;;7.03;6.18;;;;;;;;;;5050611;28;20029;-74
2022/06/21 05:34:30;;;;;;;6.80;6.07;;;;;;;;;;5043943;28;20120;-73
2022/06/21 05:36:59;;;;;;;7.45;6.20;;;;;;;;;;5048571;28;20032;-74
2022/06/21 05:39:30;;;;;;;6.40;5.75;;;;;;;;;;5050184;28;20033;-73
2022/06/21 05:41:58;;;;;;;6.43;5.93;;;;;;;;;;5047509;28;20037;-74
2022/06/21 05:44:30;;;;;;;6.32;5.82;;;;;;;;;;5048958;28;20258;-73
2022/06/21 05:47:14;;;;;;;7.20;6.50;;;;;;;;;;5048401;28;20032;-74
2022/06/21 05:49:41;;;;;;;8.02;5.57;;;;;;;;;;5045510;28;20156;-74
2022/06/21 05:52:27;;;;;;;8.07;5.60;;;;;;;;;;5051410;28;20144;-73
2022/06/21 05:55:02;;;;;;;11.80;6.38;;;;;;;;;;5051253;28;20032;-73
2022/06/21 05:57:35;;;;;;;7.40;6.03;;;;;;;;;;5047238;28;20213;-74
2022/06/21 06:00:03;;;;;;;6.63;5.75;;;;;;;;;;5048836;28;20024;-74
2022/06/21 06:02:38;;;;;;;6.60;6.00;;;;;;;;;;5045252;28;20495;-74
2022/06/21 06:05:13;;;;;;;10.10;6.22;;;;;;;;;;5048742;28;20919;-73
2022/06/21 06:07:48;;;;;;;6.57;5.93;;;;;;;;;;5044408;28;20475;-74
2022/06/21 06:10:16;;;;;;;7.57;5.82;;;;;;;;;;5051145;28;20031;-74
2022/06/21 06:12:45;;;;;;;9.13;5.90;;;;;;;;;;5041826;28;20029;-74
2022/06/21 06:15:13;;;;;;;6.55;5.88;;;;;;;;;;5046815;28;20028;-74
2022/06/21 06:17:44;;;;;;;7.05;6.03;;;;;;;;;;5046818;28;20075;-73
2022/06/21 06:20:17;;;;;;;7.45;5.93;;;;;;;;;;5043834;28;20264;-74
2022/06/21 06:22:45;;;;;;;7.53;6.40;;;;;;;;;;5049382;28;20252;-73
2022/06/21 06:25:11;;;;;;;8.52;6.30;;;;;;;;;;5056772;28;20062;-74
2022/06/21 06:27:45;;;;;;;6.78;5.78;;;;;;;;;;5054321;28;20025;-73
2022/06/21 06:30:14;;;;;;;9.88;6.00;;;;;;;;;;5057409;28;20488;-73
2022/06/21 06:32:43;;;;;;;8.02;7.10;;;;;;;;;;5055507;28;20068;-73
2022/06/21 06:35:17;;;;;;;10.32;8.10;;;;;;;;;;5052154;28;20489;-73
2022/06/21 06:37:45;;;;;;;9.20;7.30;;;;;;;;;;5048670;28;20501;-74
2022/06/21 06:40:30;;;;;;;7.20;6.50;;;;;;;;;;5053471;28;20029;-73
2022/06/21 06:43:05;;;;;;;7.28;6.57;;;;;;;;;;5052123;28;20040;-74
2022/06/21 06:45:32;;;;;;;8.07;5.93;;;;;;;;;;5048331;28;20107;-73
2022/06/21 06:48:03;;;;;;;6.38;5.82;;;;;;;;;;5050081;28;20032;-73
2022/06/21 06:50:32;;;;;;;7.15;5.75;;;;;;;;;;5050126;28;20099;-73
2022/06/21 06:53:03;;;;;;;6.50;5.95;;;;;;;;;;5046161;28;20041;-74
2022/06/21 06:55:29;;;;;;;8.60;6.63;;;;;;;;;;5045848;28;20028;-73
2022/06/21 06:58:01;;;;;;;8.88;6.70;;;;;;;;;;5043268;28;20465;-73
2022/06/21 07:00:29;;;;;;;11.05;7.05;;;;;;;;;;5046210;28;20106;-73
2022/06/21 07:03:13;;;;;;;7.53;6.78;;;;;;;;;;5034724;28;20051;-73
2022/06/21 07:05:58;;;;;;;8.98;7.38;;;;;;;;;;5046041;28;20109;-73
2022/06/21 07:08:38;;;;;;;11.45;7.50;;;;;;;;;;5043375;28;20029;-73
2022/06/21 07:11:10;;;;;;;8.65;7.55;;;;;;;;;;5045584;28;20047;-73
2022/06/21 07:13:37;;;;;;;10.38;7.35;;;;;;;;;;5043741;28;20025;-73
2022/06/21 07:16:06;;;;;;;8.57;6.75;;;;;;;;;;5044385;28;20394;-73
2022/06/21 07:18:35;;;;;;;10.38;7.32;;;;;;;;;;5043400;28;20389;-74
2022/06/21 07:21:01;;;;;;;9.10;7.10;;;;;;;;;;5049799;28;20488;-73
2022/06/21 07:23:28;;;;;;;10.10;7.88;;;;;;;;;;5043275;28;20024;-73
2022/06/21 07:26:18;;;;;;;7.95;7.13;;;;;;;;;;5030128;28;20032;-74
2022/06/21 07:28:50;;;;;;;7.93;7.22;;;;;;;;;;5036421;28;20389;-74
2022/06/21 07:31:35;;;;;;;13.20;7.80;;;;;;;;;;5048220;28;20222;-73
2022/06/21 07:34:07;;;;;;;9.80;7.57;;;;;;;;;;5043873;28;20033;-73
2022/06/21 07:36:51;;;;;;;9.40;7.05;;;;;;;;;;5043103;28;20029;-73
2022/06/21 07:39:24;;;;;;;8.00;7.07;;;;;;;;;;5048476;28;20222;-73
2022/06/21 07:41:52;;;;;;;11.48;7.03;;;;;;;;;;5052705;28;20068;-73
2022/06/21 07:44:24;;;;;;;9.25;6.88;;;;;;;;;;5046360;28;20246;-73
2022/06/21 07:46:52;;;;;;;11.35;7.00;;;;;;;;;;5049956;28;20460;-73
2022/06/21 07:49:26;;;;;;;8.70;6.70;;;;;;;;;;5049997;28;20499;-73
2022/06/21 07:51:58;;;;;;;6.90;6.18;;;;;;;;;;5051699;28;20480;-74
2022/06/21 07:54:30;;;;;;;7.13;6.43;;;;;;;;;;5045714;28;20031;-74
2022/06/21 07:56:58;;;;;;;6.55;5.85;;;;;;;;;;5049003;28;20060;-73
2022/06/21 07:59:31;;;;;;;11.55;7.07;;;;;;;;;;5043137;28;20034;-73
2022/06/21 08:07:43;;;;;;;8.07;7.07;;;;;;;;;;5051540;28;20835;-73
2022/06/21 08:10:09;;;;;;;7.85;7.15;;;;;;;;;;5053747;28;20162;-74
2022/06/21 08:12:35;;;;;;;9.45;8.55;;;;;;;;;;5055296;28;20036;-74
2022/06/21 08:15:02;;;;;;;15.40;9.40;;;;;;;;;;5056678;28;20500;-74
2022/06/21 08:17:31;;;;;;;13.25;11.85;;;;;;;;;;5050103;28;20036;-74
2022/06/21 08:20:07;;;;;;;15.05;10.18;;;;;;;;;;5048056;28;20578;-73
2022/06/21 08:22:38;;;;;;;14.10;10.98;;;;;;;;;;5055046;28;20023;-73
2022/06/21 08:25:10;;;;;;;16.27;11.43;;;;;;;;;;5047722;28;20021;-73
2022/06/21 08:27:43;;;;;;;17.05;12.95;;;;;;;;;;5046160;28;20052;-73
2022/06/21 08:30:15;;;;;;;14.35;12.85;;;;;;;;;;5030929;28;20075;-74
2022/06/21 08:32:40;;;;;;;;;;;;;;;;;;5045493;28;20032;-73
2022/06/21 08:35:19;;;;;;;17.17;12.95;;;;;;;;;;5046179;28;19913;-73
2022/06/21 08:38:05;;;;;;;11.52;9.77;;;;;;;;;;5031799;28;20255;-73
2022/06/21 08:40:31;;;;;;;11.30;9.75;;;;;;;;;;5019038;28;20044;-73
2022/06/21 08:43:14;;;;;;;12.75;9.25;;;;;;;;;;5047859;28;20017;-73
2022/06/21 08:45:58;;;;;;;14.32;8.80;;;;;;;;;;5046405;28;20033;-73
2022/06/21 08:48:44;;;;;;;8.40;7.55;;;;;;;;;;5043172;28;20036;-74
2022/06/21 08:51:30;;;;;;;13.88;9.20;;;;;;;;;;5053477;28;20025;-73
2022/06/21 08:54:03;;;;;;;9.15;8.20;;;;;;;;;;5053327;28;20090;-74
2022/06/21 08:56:38;;;;;;;9.85;7.05;;;;;;;;;;5050964;28;20039;-74
2022/06/21 08:59:07;;;;;;;7.65;6.82;;;;;;;;;;5048503;28;20021;-74
2022/06/21 09:01:49;;;;;;;8.70;7.25;;;;;;;;;;5048915;28;20041;-74
2022/06/21 09:04:22;;;;;;;10.27;8.00;;;;;;;;;;5048980;28;20037;-74
2022/06/21 09:06:48;;;;;;;8.40;6.47;;;;;;;;;;5053017;28;20031;-74
2022/06/21 09:09:14;;;;;;;12.85;7.57;;;;;;;;;;5050310;28;20500;-74
2022/06/21 09:11:46;;;;;;;8.02;6.72;;;;;;;;;;5047245;28;20025;-74
2022/06/21 09:14:21;;;;;;;7.60;6.85;;;;;;;;;;5048608;28;20024;-74
2022/06/21 09:16:54;;;;;;;6.40;5.78;;;;;;;;;;5042342;28;20090;-74
2022/06/21 09:19:20;;;;;;;6.10;5.60;;;;;;;;;;5045037;28;20098;-73
2022/06/21 09:21:51;;;;;;;6.70;5.97;;;;;;;;;;5046174;28;20416;-74
2022/06/21 09:24:17;;;;;;;;;;;;;;;;;;5047687;28;20136;-74
2022/06/21 09:27:03;;;;;;;7.35;6.22;;;;;;;;;;5048582;28;20027;-74
2022/06/21 09:29:39;;;;;;;6.88;6.18;;;;;;;;;;5048603;28;20417;-73
2022/06/21 09:32:14;;;;;;;7.40;6.20;;;;;;;;;;5055586;28;20017;-74
2022/06/21 09:34:53;;;;;;;7.35;6.60;;;;;;;;;;5058016;28;20037;-74
2022/06/21 09:37:28;;;;;;;6.28;5.60;;;;;;;;;;5051860;28;20024;-74
2022/06/21 09:40:03;;;;;;;8.27;5.75;;;;;;;;;;5052477;28;20040;-74
2022/06/21 09:42:38;;;;;;;6.05;5.43;;;;;;;;;;5049832;28;20040;-74
2022/06/21 09:45:10;;;;;;;7.80;6.07;;;;;;;;;;5048030;28;20028;-74
2022/06/21 09:47:36;;;;;;;7.03;6.32;;;;;;;;;;5054767;28;20047;-75
2022/06/21 09:50:09;;;;;;;6.82;6.13;;;;;;;;;;5049486;28;20371;-72
2022/06/21 09:52:56;;;;;;;6.65;5.93;;;;;;;;;;5049167;28;20036;-74
2022/06/21 09:55:40;;;;;;;7.40;6.00;;;;;;;;;;5045213;28;20048;-73
2022/06/21 09:58:18;;;;;;;6.30;5.70;;;;;;;;;;5049434;28;20490;-73
2022/06/21 10:00:50;;;;;;;6.88;6.28;;;;;;;;;;5047081;28;20124;-74
2022/06/21 10:03:37;;;;;;;7.43;6.20;;;;;;;;;;5030664;28;20040;-73
2022/06/21 10:06:06;;;;;;;6.97;6.15;;;;;;;;;;5050319;28;20031;-73
2022/06/21 10:08:38;;;;;;;7.00;6.30;;;;;;;;;;5054575;28;20020;-73
2022/06/21 10:11:10;;;;;;;6.15;5.50;;;;;;;;;;5041585;28;20094;-73
2022/06/21 10:13:37;;;;;;;6.22;5.72;;;;;;;;;;5044212;28;20024;-72
2022/06/21 10:16:22;;;;;;;6.47;5.82;;;;;;;;;;5049063;28;20721;-73
2022/06/21 10:19:06;;;;;;;6.75;5.78;;;;;;;;;;5057143;28;20508;-73
2022/06/21 10:21:39;;;;;;;6.90;5.75;;;;;;;;;;5050866;28;20043;-73
2022/06/21 10:24:11;;;;;;;5.85;5.35;;;;;;;;;;5048555;28;20056;-73
2022/06/21 10:26:37;;;;;;;6.80;6.20;;;;;;;;;;5046852;28;20025;-74
2022/06/21 10:29:04;;;;;;;6.18;5.65;;;;;;;;;;5046896;28;20088;-74
2022/06/21 10:31:37;;;;;;;7.40;5.80;;;;;;;;;;5047157;28;20021;-73
2022/06/21 10:34:03;;;;;;;6.47;5.15;;;;;;;;;;5048902;28;20029;-74
2022/06/21 10:36:35;;;;;;;5.35;4.95;;;;;;;;;;5041904;28;20620;-75
2022/06/21 10:39:07;;;;;;;6.50;5.55;;;;;;;;;;5023780;28;20495;-73
2022/06/21 10:41:33;;;;;;;6.43;5.78;;;;;;;;;;5049635;28;20063;-76
2022/06/21 10:44:32;;;;;;;9.35;5.40;;;;;;;;;;5056990;28;20085;-73
2022/06/21 10:47:11;;;;;;;6.32;5.72;;;;;;;;;;5011552;28;20049;-73
2022/06/21 10:49:39;;;;;;;6.88;5.68;;;;;;;;;;5051828;28;20224;-74
2022/06/21 10:52:24;;;;;;;7.80;5.18;;;;;;;;;;5046199;28;20024;-75
2022/06/21 10:55:03;;;;;;;6.05;5.28;;;;;;;;;;5052630;28;20025;-73
2022/06/21 10:57:32;;;;;;;5.97;5.38;;;;;;;;;;5044430;28;20059;-74
2022/06/21 11:02:59;;;;;;;6.03;5.43;;;;;;;;;;5048227;28;20052;-74
2022/06/21 11:05:30;;;;;;;6.53;5.00;;;;;;;;;;5050665;28;20028;-74
2022/06/21 11:08:11;;;;;;;6.47;5.05;;;;;;;;;;5043953;28;20029;-73
2022/06/21 11:11:12;;;;;;;7.57;5.28;;;;;;;;;;5046664;28;20573;-73
2022/06/21 11:13:49;;;;;;;5.47;4.97;;;;;;;;;;5004739;28;20026;-73
2022/06/21 11:16:15;;;;;;;7.45;5.55;;;;;;;;;;5035032;28;20035;-72
2022/06/21 11:18:49;;;;;;;5.40;4.90;;;;;;;;;;5048386;28;20036;-74
2022/06/21 11:21:21;;;;;;;6.65;5.22;;;;;;;;;;5046690;28;20072;-73
2022/06/21 11:24:06;;;;;;;6.25;5.32;;;;;;;;;;5048533;28;20079;-73
2022/06/21 11:26:41;;;;;;;6.10;5.50;;;;;;;;;;5044771;28;20556;-75
2022/06/21 11:29:25;;;;;;;5.65;5.15;;;;;;;;;;5053072;28;20049;-74
2022/06/21 11:31:51;;;;;;;6.57;5.40;;;;;;;;;;5052705;28;20495;-73
2022/06/21 11:34:33;;;;;;;7.15;5.00;;;;;;;;;;5047486;28;20029;-73
2022/06/21 11:37:03;;;;;;;5.80;5.30;;;;;;;;;;5046499;28;20029;-73
2022/06/21 11:39:30;;;;;;;6.68;5.20;;;;;;;;;;5051151;28;20621;-73
2022/06/21 11:42:14;;;;;;;11.15;5.50;;;;;;;;;;5049395;28;20044;-73
2022/06/21 11:44:43;;;;;;;5.75;5.22;;;;;;;;;;5051803;28;20089;-74
2022/06/21 11:47:23;;;;;;;6.07;5.30;;;;;;;;;;5047734;28;20025;-73
2022/06/21 11:49:55;;;;;;;5.40;4.95;;;;;;;;;;5043992;28;20063;-74
2022/06/21 11:52:21;;;;;;;5.40;4.90;;;;;;;;;;5044115;28;20859;-73
2022/06/21 11:54:51;;;;;;;5.80;5.00;;;;;;;;;;5031656;28;20878;-74
2022/06/21 11:57:21;;;;;;;5.75;5.03;;;;;;;;;;5046708;28;20025;-74
2022/06/21 11:59:53;;;;;;;5.13;4.68;;;;;;;;;;5048380;28;20044;-74
2022/06/21 12:02:32;;;;;;;5.32;4.88;;;;;;;;;;5046148;28;20036;-76
2022/06/21 12:05:02;;;;;;;6.35;5.75;;;;;;;;;;5052676;28;20033;-73
2022/06/21 12:07:45;;;;;;;5.32;4.82;;;;;;;;;;5056476;28;20059;-73
2022/06/21 12:10:11;;;;;;;5.88;5.38;;;;;;;;;;5053220;28;20047;-75
2022/06/21 12:12:37;;;;;;;7.35;5.13;;;;;;;;;;5052990;28;20024;-73
2022/06/21 12:15:26;;;;;;;5.80;5.28;;;;;;;;;;5056137;28;20117;-74
2022/06/21 12:17:53;;;;;;;5.72;5.22;;;;;;;;;;5045785;28;20025;-74
2022/06/21 12:20:26;;;;;;;10.68;5.60;;;;;;;;;;5050337;28;20519;-73
2022/06/21 12:23:12;;;;;;;5.78;5.32;;;;;;;;;;5048896;28;20041;-73
2022/06/21 12:25:38;;;;;;;5.47;5.07;;;;;;;;;;5018138;28;20090;-73
2022/06/21 12:28:12;;;;;;;5.80;5.25;;;;;;;;;;5050470;28;20025;-73
2022/06/21 12:30:39;;;;;;;5.30;4.80;;;;;;;;;;5048543;28;20017;-74
2022/06/21 12:33:07;;;;;;;5.18;4.65;;;;;;;;;;5050262;28;20029;-73
2022/06/21 12:35:39;;;;;;;6.13;4.82;;;;;;;;;;5050195;28;20017;-74
2022/06/21 12:38:07;;;;;;;5.65;5.15;;;;;;;;;;5051591;28;20200;-73
2022/06/21 12:40:38;;;;;;;5.50;5.00;;;;;;;;;;5047680;28;20028;-73
2022/06/21 12:43:23;;;;;;;5.60;5.10;;;;;;;;;;5045791;28;20379;-74
2022/06/21 12:45:58;;;;;;;6.97;5.18;;;;;;;;;;5051105;28;20476;-74
2022/06/21 12:48:36;;;;;;;5.30;4.82;;;;;;;;;;5045533;28;20025;-73
2022/06/21 12:51:21;;;;;;;9.05;5.60;;;;;;;;;;5048561;28;20029;-73
2022/06/21 12:54:06;;;;;;;6.18;5.40;;;;;;;;;;5043407;28;20033;-73
2022/06/21 12:56:40;;;;;;;6.28;5.68;;;;;;;;;;5052676;28;20052;-73
2022/06/21 12:59:17;;;;;;;5.65;5.15;;;;;;;;;;5043834;28;20033;-74
2022/06/21 13:01:43;;;;;;;6.30;5.72;;;;;;;;;;5046605;28;20048;-73
2022/06/21 13:04:39;;;;;;;5.80;5.25;;;;;;;;;;5052838;28;20033;-73
2022/06/21 13:07:24;;;;;;;5.63;5.22;;;;;;;;;;4997012;28;20042;-73
2022/06/21 13:09:50;;;;;;;9.50;5.32;;;;;;;;;;5053197;28;20032;-73
2022/06/21 13:12:24;;;;;;;6.43;5.55;;;;;;;;;;5033809;28;20408;-73
2022/06/21 13:14:59;;;;;;;5.85;5.22;;;;;;;;;;5049159;28;20060;-73
2022/06/21 13:17:44;;;;;;;6.03;5.53;;;;;;;;;;5052358;28;20036;-72
2022/06/21 13:20:20;;;;;;;5.85;5.05;;;;;;;;;;5047241;28;20028;-73
2022/06/21 13:22:52;;;;;;;6.22;5.20;;;;;;;;;;5051114;28;20082;-72
2022/06/21 13:25:25;;;;;;;5.82;5.28;;;;;;;;;;5046511;28;20117;-72
2022/06/21 13:28:10;;;;;;;9.88;5.50;;;;;;;;;;5050916;28;20024;-73
2022/06/21 13:30:59;;;;;;;6.65;5.40;;;;;;;;;;5046193;28;20090;-72
2022/06/21 13:33:38;;;;;;;7.45;5.30;;;;;;;;;;5022583;28;20130;-72
2022/06/21 13:36:11;;;;;;;5.60;5.20;;;;;;;;;;5053698;28;20025;-73
2022/06/21 13:38:37;;;;;;;5.63;5.05;;;;;;;;;;5053767;28;20028;-73
2022/06/21 13:41:06;;;;;;;6.32;5.22;;;;;;;;;;5049679;28;20078;-72
2022/06/21 13:43:38;;;;;;;6.10;5.50;;;;;;;;;;5048473;28;20039;-73
2022/06/21 13:46:14;;;;;;;7.07;5.70;;;;;;;;;;5056876;28;20469;-75
2022/06/21 13:48:52;;;;;;;5.80;5.05;;;;;;;;;;5051298;28;20060;-72
2022/06/21 13:51:18;;;;;;;6.90;5.22;;;;;;;;;;5052010;28;20039;-73
2022/06/21 13:53:45;;;;;;;5.60;5.10;;;;;;;;;;5045759;28;20100;-72
2022/06/21 13:56:26;;;;;;;5.30;4.90;;;;;;;;;;5055270;28;20463;-72
2022/06/21 13:58:54;;;;;;;6.07;4.95;;;;;;;;;;5054739;28;20055;-74
2022/06/21 14:01:38;;;;;;;5.55;5.05;;;;;;;;;;5048425;28;20040;-74
2022/06/21 14:04:05;;;;;;;5.75;4.95;;;;;;;;;;5042883;28;20708;-73
2022/06/21 14:06:34;;;;;;;5.70;4.97;;;;;;;;;;5055931;28;20028;-73
2022/06/21 14:09:15;;;;;;;6.63;5.28;;;;;;;;;;5047792;28;20024;-74
2022/06/21 14:11:41;;;;;;;;;;;;;;;;;;5049591;28;20024;-73
2022/06/21 14:14:11;;;;;;;5.43;4.97;;;;;;;;;;5052105;28;20706;-73
2022/06/21 14:16:41;;;;;;;5.63;4.93;;;;;;;;;;5044140;28;20120;-76
2022/06/21 14:19:11;;;;;;;5.85;5.35;;;;;;;;;;5049725;28;20079;-73
2022/06/21 14:21:41;;;;;;;6.03;4.80;;;;;;;;;;5050307;28;20043;-73
2022/06/21 14:24:26;;;;;;;13.10;5.00;;;;;;;;;;5043796;28;20017;-73
2022/06/21 14:26:52;;;;;;;5.05;4.65;;;;;;;;;;5053208;28;20545;-72
2022/06/21 14:29:25;;;;;;;5.35;4.88;;;;;;;;;;5047469;28;20036;-76
2022/06/21 14:31:57;;;;;;;4.88;4.47;;;;;;;;;;5047624;28;20029;-73
2022/06/21 14:34:28;;;;;;;5.53;5.03;;;;;;;;;;5044247;28;20635;-73
2022/06/21 14:36:59;;;;;;;5.35;4.57;;;;;;;;;;5050643;28;20027;-77
2022/06/21 14:39:36;;;;;;;5.07;4.65;;;;;;;;;;5037398;28;20079;-73
2022/06/21 14:42:18;;;;;;;8.13;4.97;;;;;;;;;;5055291;28;20036;-75
2022/06/21 14:45:03;;;;;;;4.90;4.18;;;;;;;;;;5044059;28;20033;-73
2022/06/21 14:47:33;;;;;;;7.70;4.88;;;;;;;;;;5054839;28;20025;-74
2022/06/21 14:50:18;;;;;;;5.05;4.55;;;;;;;;;;5047899;28;20029;-74
2022/06/21 14:52:53;;;;;;;5.05;4.55;;;;;;;;;;5050166;28;20028;-73
2022/06/21 14:55:46;;;;;;;6.18;4.20;;;;;;;;;;5046666;28;20140;-75
2022/06/21 14:58:25;;;;;;;4.95;4.55;;;;;;;;;;5020466;28;20044;-73
2022/06/21 15:01:01;;;;;;;7.20;4.35;;;;;;;;;;5043705;28;20516;-74
2022/06/21 15:03:47;;;;;;;6.10;4.35;;;;;;;;;;5051760;28;20554;-73
2022/06/21 15:06:20;;;;;;;9.98;4.30;;;;;;;;;;5048840;28;20032;-73
2022/06/21 15:08:56;;;;;;;7.72;4.75;;;;;;;;;;5041984;28;20705;-73
2022/06/21 15:14:16;;;;;;;5.43;4.65;;;;;;;;;;5051191;28;20078;-75
2022/06/21 15:16:52;;;;;;;5.25;4.15;;;;;;;;;;5058543;28;20032;-73
2022/06/21 15:22:16;;;;;;;5.10;4.10;;;;;;;;;;5049954;28;20524;-73
2022/06/21 15:24:42;;;;;;;6.40;4.32;;;;;;;;;;5054647;28;20021;-73
2022/06/21 15:27:13;;;;;;;5.10;4.60;;;;;;;;;;5051267;28;20029;-73
2022/06/21 15:29:44;;;;;;;5.22;4.57;;;;;;;;;;5055250;28;20076;-75
2022/06/21 15:32:14;;;;;;;5.60;4.43;;;;;;;;;;5047136;28;20040;-75